Stations météo

Publicité
Puerto Plata, République Dominicaine (78457): Température de l'air & dewpoint: 17.03.2019 18:00:00 - 23.03.2019 18:00:00 (AST)Puerto Plata, République Dominicaine (78457): Vitesse du vent: 17.03.2019 18:00:00 - 23.03.2019 18:00:00 (AST)Puerto Plata, République Dominicaine (78457): Direction du vent: 17.03.2019 18:00:00 - 23.03.2019 18:00:00 (AST)Puerto Plata, République Dominicaine (78457): visibility: 17.03.2019 18:00:00 - 23.03.2019 18:00:00 (AST)
Date & Time tt [°C] td [°C] ff [km/h] ff [knt] dd vv [km]
23.03.2019 18:00:00 27,0 22,0 21 11 E 10
23.03.2019 17:00:00 28,0 23,0 18 10 E 10
23.03.2019 16:00:00 29,0 22,0 37 20 ENE 10
23.03.2019 15:00:00 30,0 22,0 35 19 ENE 10
23.03.2019 14:00:00 30,0 21,0 31 17 ENE 10
23.03.2019 13:00:00 31,0 23,0 28 15 E 10
23.03.2019 12:00:00 31,0 21,0 26 14 E 10
23.03.2019 11:00:00 30,0 21,0 18 10 E 10
23.03.2019 10:00:00 28,0 22,0 15 8 ENE 10
23.03.2019 09:00:00 26,0 21,0 9 5 ESE 10
23.03.2019 08:00:00 21,0 20,0 0 0 N 10
23.03.2019 07:00:00 21,0 20,0 0 0 N 10
23.03.2019 06:00:00 - - - - - -
23.03.2019 05:00:00 23,0 22,0 0 0 N 10
23.03.2019 04:00:00 - - - - - -
23.03.2019 03:00:00 - - - - - -
23.03.2019 02:00:00 24,0 23,0 0 0 N 10
23.03.2019 01:00:00 - - - - - -
23.03.2019 00:00:00 - - - - - -
22.03.2019 23:00:00 25,0 24,0 0 0 N 10
22.03.2019 22:00:00 25,0 24,0 0 0 N 10
22.03.2019 21:00:00 26,0 23,0 0 0 N 10
22.03.2019 20:00:00 - - 0 0 N 10
22.03.2019 19:00:00 27,0 23,0 9 5 N 10
22.03.2019 18:00:00 28,0 23,0 9 5 N 10
22.03.2019 17:00:00 28,0 24,0 13 7 N 10
22.03.2019 16:00:00 28,0 23,0 16 9 N 10
22.03.2019 15:00:00 29,0 22,0 15 8 NNW 10
22.03.2019 14:00:00 29,0 22,0 15 8 NNW 10
22.03.2019 13:00:00 28,0 22,0 15 8 N 10
22.03.2019 12:00:00 28,0 22,0 9 5 N 10
22.03.2019 11:00:00 27,0 23,0 9 5 N 10
22.03.2019 10:00:00 27,0 23,0 0 0 N 10
22.03.2019 09:00:00 25,0 22,0 0 0 N 10
22.03.2019 08:00:00 23,0 21,0 0 0 N 10
22.03.2019 07:00:00 23,0 22,0 0 0 N 10
22.03.2019 06:00:00 - - - - - -
22.03.2019 05:00:00 23,0 23,0 0 0 N 10
22.03.2019 04:00:00 - - - - - -
22.03.2019 03:00:00 - - - - - -
22.03.2019 02:00:00 24,0 23,0 0 0 N 10
22.03.2019 01:00:00 - - - - - -
22.03.2019 00:00:00 - - - - - -
21.03.2019 23:00:00 25,0 24,0 0 0 N 10
21.03.2019 22:00:00 25,0 24,0 0 0 N 8
21.03.2019 21:00:00 26,0 24,0 0 0 N 10
21.03.2019 20:00:00 27,0 23,0 9 5 ENE 10
21.03.2019 19:00:00 27,0 23,0 9 5 ENE 10
21.03.2019 18:00:00 28,0 23,0 9 5 N 10
21.03.2019 17:00:00 28,0 23,0 9 5 NE 10
21.03.2019 16:00:00 30,0 25,0 18 10 NNE 10
21.03.2019 15:00:00 29,0 24,0 15 8 NNE 10
21.03.2019 14:00:00 29,0 22,0 15 8 NNE 10
21.03.2019 13:00:00 29,0 22,0 18 10 NNE 10
21.03.2019 12:00:00 30,0 22,0 15 8 N 10
21.03.2019 11:00:00 29,0 22,0 9 5 N 10
21.03.2019 10:00:00 27,0 23,0 0 0 N 10
21.03.2019 09:00:00 25,0 21,0 0 0 N 10
21.03.2019 08:00:00 23,0 21,0 9 5 S 10
21.03.2019 07:00:00 21,0 20,0 0 0 N 10
21.03.2019 06:00:00 - - - - - -
21.03.2019 05:00:00 24,0 21,0 0 0 N 10
21.03.2019 04:00:00 - - - - - -
21.03.2019 03:00:00 - - - - - -
21.03.2019 02:00:00 24,0 22,0 0 0 N 10
21.03.2019 01:00:00 - - - - - -
21.03.2019 00:00:00 - - - - - -
20.03.2019 23:00:00 25,0 22,0 9 5 S 10
20.03.2019 22:00:00 24,0 22,0 0 0 N 10
20.03.2019 21:00:00 25,0 22,0 0 0 N 10
20.03.2019 20:00:00 26,0 23,0 0 0 N 10
20.03.2019 19:00:00 27,0 22,0 0 0 N 10
20.03.2019 18:00:00 27,0 22,0 0 0 N 10
20.03.2019 17:00:00 28,0 22,0 9 5 N 10
20.03.2019 16:00:00 28,0 22,0 15 8 N 10
20.03.2019 15:00:00 29,0 22,0 9 5 N 10
20.03.2019 14:00:00 30,0 22,0 15 8 N 10
20.03.2019 13:00:00 30,0 22,0 18 10 NNE 10
20.03.2019 12:00:00 29,0 22,0 18 10 NNW 10
20.03.2019 11:00:00 28,0 21,0 11 6 NNE 10
20.03.2019 10:00:00 26,0 22,0 0 0 N 10
20.03.2019 09:00:00 25,0 20,0 0 0 N 10
20.03.2019 08:00:00 21,0 20,0 0 0 N 10
20.03.2019 07:00:00 20,0 19,0 0 0 N 10
20.03.2019 06:00:00 - - - - - -
20.03.2019 05:00:00 20,0 19,0 11 6 S 10
20.03.2019 04:00:00 - - - - - -
20.03.2019 03:00:00 - - - - - -
20.03.2019 02:00:00 - - - - - -
20.03.2019 01:00:00 - - - - - -
20.03.2019 00:00:00 - - - - - -
19.03.2019 23:00:00 23,0 21,0 11 6 ESE 10
19.03.2019 22:00:00 24,0 21,0 9 5 ESE 10
19.03.2019 21:00:00 24,0 21,0 15 8 ESE 10
19.03.2019 20:00:00 25,0 21,0 18 10 E 10
19.03.2019 19:00:00 26,0 21,0 15 8 E 10
19.03.2019 18:00:00 27,0 21,0 22 12 E 10
19.03.2019 17:00:00 28,0 21,0 34 18 E 10
19.03.2019 16:00:00 30,0 21,0 34 18 ENE 10
19.03.2019 15:00:00 30,0 21,0 31 17 E 10
19.03.2019 14:00:00 31,0 21,0 29 16 ENE 10
19.03.2019 13:00:00 32,0 21,0 24 13 E 10
19.03.2019 12:00:00 31,0 21,0 13 7 ESE 10
19.03.2019 11:00:00 30,0 21,0 18 10 SE 10
19.03.2019 10:00:00 29,0 21,0 15 8 E 10
19.03.2019 09:00:00 24,0 20,0 0 0 N 10
19.03.2019 08:00:00 20,0 19,0 0 0 N 10
19.03.2019 07:00:00 20,0 20,0 0 0 N 10
19.03.2019 06:00:00 - - - - - -
19.03.2019 05:00:00 20,0 20,0 0 0 N 10
19.03.2019 04:00:00 - - - - - -
19.03.2019 03:00:00 - - - - - -
19.03.2019 02:00:00 21,0 20,0 0 0 N 10
19.03.2019 01:00:00 - - - - - -
19.03.2019 00:00:00 - - - - - -
18.03.2019 23:00:00 23,0 22,0 9 5 ESE 10
18.03.2019 22:00:00 24,0 22,0 9 5 ESE 10
18.03.2019 21:00:00 24,0 23,0 9 5 ESE 10
18.03.2019 20:00:00 25,0 22,0 11 6 E 10
18.03.2019 19:00:00 26,0 23,0 9 5 E 10
18.03.2019 18:00:00 28,0 23,0 18 10 E 10
18.03.2019 17:00:00 27,0 22,0 18 10 E 10
18.03.2019 16:00:00 30,0 22,0 31 17 ENE 10
18.03.2019 15:00:00 31,0 22,0 28 15 ENE 10
18.03.2019 14:00:00 31,0 22,0 37 20 ENE 10
18.03.2019 13:00:00 30,0 22,0 28 15 ENE 10
18.03.2019 12:00:00 29,0 22,0 28 15 ENE 10
18.03.2019 11:00:00 28,0 21,0 18 10 ENE 10
18.03.2019 10:00:00 27,0 20,0 9 5 ENE 10
18.03.2019 09:00:00 25,0 20,0 0 0 N 10
18.03.2019 08:00:00 20,0 18,0 0 0 N 10
18.03.2019 07:00:00 20,0 18,0 0 0 N 10
18.03.2019 06:00:00 - - - - - -
18.03.2019 05:00:00 - - - - - -
18.03.2019 04:00:00 - - - - - -
18.03.2019 03:00:00 - - - - - -
18.03.2019 02:00:00 21,0 20,0 0 0 N 10
18.03.2019 01:00:00 - - - - - -
18.03.2019 00:00:00 - - - - - -
17.03.2019 23:00:00 23,0 21,0 0 0 N 10
17.03.2019 22:00:00 23,0 21,0 0 0 N 10
17.03.2019 21:00:00 24,0 21,0 9 5 ESE 10
17.03.2019 20:00:00 24,0 20,0 15 8 ESE 10
17.03.2019 19:00:00 27,0 22,0 18 10 E 10
17.03.2019 18:00:00 27,0 21,0 22 12 E 10

tt = Température de l'air
td = dewpoint
ff = Vitesse du vent
dd = Direction du vent
vv = visibility

stations d'obs. à proximité